Time;durP1;ratioP1;P1;durP2;ratioP2;P2;SDS_P1;SDS_P2;PMS_P1;PMS_P2;Temp;Humidity;BMP_temperature;BMP_pressure;BME280_temperature;BME280_humidity;BME280_pressure;Samples;Min_cycle;Max_cycle;Signal;HPM_P1;HPM_P2
2024/03/12 00:01:09;;;;;;;3.00;1.20;;;;;;;7.28;97.16;97725.72;4943291;28;20092;-62
2024/03/12 00:03:35;;;;;;;3.95;1.40;;;;;;;7.15;94.87;97690.81;4953214;28;20453;-62
2024/03/12 00:06:03;;;;;;;4.57;1.60;;;;;;;7.42;93.59;97721.81;4959713;28;20054;-62
2024/03/12 00:08:31;;;;;;;4.47;1.27;;;;;;;7.46;89.87;97712.78;4938096;28;20050;-62
2024/03/12 00:10:59;;;;;;;3.10;1.10;;;;;;;7.41;84.97;97671.06;4952450;28;20043;-63
2024/03/12 00:13:26;;;;;;;3.53;1.08;;;;;;;7.82;83.13;97723.16;4954698;28;20041;-63
2024/03/12 00:15:51;;;;;;;3.10;1.10;;;;;;;7.90;81.76;97719.81;4948457;28;20043;-63
2024/03/12 00:18:20;;;;;;;4.18;1.42;;;;;;;8.12;78.23;97733.25;4964092;28;20027;-62
2024/03/12 00:20:45;;;;;;;4.85;1.25;;;;;;;8.17;78.10;97726.66;4934385;28;20047;-61
2024/03/12 00:23:11;;;;;;;2.78;0.95;;;;;;;8.31;75.16;97725.28;4950023;28;20064;-60
2024/03/12 00:25:37;;;;;;;2.58;0.88;;;;;;;8.38;73.75;97731.50;4959856;28;20177;-63
2024/03/12 00:28:05;;;;;;;3.30;0.73;;;;;;;8.45;74.29;97744.66;4941722;28;20548;-61
2024/03/12 00:30:31;;;;;;;3.60;1.27;;;;;;;8.03;82.34;97740.13;4955553;28;20042;-62
2024/03/12 00:32:57;;;;;;;3.13;0.93;;;;;;;7.99;79.51;97737.03;4943515;28;20386;-62
2024/03/12 00:35:32;;;;;;;3.30;1.10;;;;;;;8.03;81.78;97740.13;4942007;28;20034;-61
2024/03/12 00:37:58;;;;;;;3.15;1.17;;;;;;;8.09;79.29;97735.16;4942969;28;20489;-62
2024/03/12 00:40:33;;;;;;;3.42;1.00;;;;;;;8.35;73.08;97752.50;4976768;28;20421;-64
2024/03/12 00:42:59;;;;;;;3.58;0.77;;;;;;;8.58;70.14;97752.88;4952212;28;20044;-62
2024/03/12 00:45:36;;;;;;;2.17;0.88;;;;;;;8.50;72.93;97764.94;4942789;28;20124;-64
2024/03/12 00:48:05;;;;;;;2.53;0.90;;;;;;;8.28;74.18;97754.09;4960453;28;20038;-63
2024/03/12 00:50:32;;;;;;;3.42;1.17;;;;;;;8.35;71.22;97756.88;4935206;28;20041;-63
2024/03/12 00:53:02;;;;;;;4.43;1.00;;;;;;;8.28;74.53;97757.47;4940172;28;20045;-64
2024/03/12 00:55:28;;;;;;;2.97;1.00;;;;;;;8.10;77.52;97761.88;4960773;28;20095;-64
2024/03/12 00:57:54;;;;;;;3.80;1.10;;;;;;;7.80;80.36;97737.22;4960677;28;20113;-62
2024/03/12 01:00:55;;;;;;;3.33;1.10;;;;;;;7.76;80.63;97751.38;4968167;28;20043;-62
2024/03/12 01:03:13;;;;;;;3.47;1.05;;;;;;;7.83;78.58;97749.81;4962127;28;20084;-62
2024/03/12 01:05:39;;;;;;;4.57;1.15;;;;;;;7.78;78.04;97747.69;4977012;28;20126;-61
2024/03/12 01:08:11;;;;;;;2.20;0.70;;;;;;;8.00;73.97;97748.22;4950423;28;21266;-63
2024/03/12 01:10:37;;;;;;;2.55;0.80;;;;;;;8.12;72.70;97749.59;4952996;28;20381;-59
2024/03/12 01:13:09;;;;;;;2.67;0.73;;;;;;;8.26;70.56;97751.63;4943921;28;20042;-63
2024/03/12 01:15:36;;;;;;;3.85;0.90;;;;;;;8.43;68.80;97750.03;4940237;28;20026;-64
2024/03/12 01:18:03;;;;;;;1.88;0.63;;;;;;;8.73;64.82;97757.47;4967943;28;20037;-64
2024/03/12 01:20:29;;;;;;;3.10;0.80;;;;;;;8.91;63.43;97752.19;4943989;28;20126;-60
2024/03/12 01:22:54;;;;;;;1.30;0.50;;;;;;;9.01;62.54;97751.13;4942702;28;20042;-60
2024/03/12 01:25:22;;;;;;;2.15;0.60;;;;;;;9.17;61.43;97771.13;4961612;28;21126;-61
2024/03/12 01:27:49;;;;;;;3.55;0.95;;;;;;;8.99;65.22;97773.00;4969462;28;20069;-62
2024/03/12 01:30:16;;;;;;;2.80;0.90;;;;;;;8.83;66.30;97758.16;4959297;28;20042;-59
2024/03/12 01:32:45;;;;;;;4.07;1.95;;;;;;;8.66;67.33;97770.22;4957783;28;20038;-61
2024/03/12 01:35:13;;;;;;;2.63;0.68;;;;;;;8.82;65.46;97761.75;4966993;28;20049;-61
2024/03/12 01:37:45;;;;;;;3.50;1.05;;;;;;;8.47;71.67;97768.66;4958674;28;20186;-61
2024/03/12 01:40:25;;;;;;;3.25;1.00;;;;;;;8.23;73.49;97767.50;4938925;28;20085;-61
2024/03/12 01:42:56;;;;;;;3.42;1.02;;;;;;;8.03;74.69;97759.09;4959788;28;20446;-63
2024/03/12 01:45:24;;;;;;;3.22;0.90;;;;;;;8.00;74.71;97763.75;4957302;28;20046;-61
2024/03/12 01:48:01;;;;;;;2.58;0.80;;;;;;;8.00;73.62;97750.81;4962406;28;20034;-62
2024/03/12 01:50:31;;;;;;;2.25;0.80;;;;;;;7.79;72.22;97701.91;4954609;28;20041;-61
2024/03/12 01:52:59;;;;;;;2.83;0.73;;;;;;;7.99;74.64;97764.69;4945138;28;20050;-61
2024/03/12 01:55:25;;;;;;;2.28;0.85;;;;;;;7.93;75.16;97762.72;4958268;28;20042;-62
2024/03/12 01:57:53;;;;;;;2.15;0.63;;;;;;;8.09;72.91;97768.84;4957940;28;20713;-62
2024/03/12 02:00:19;;;;;;;2.45;0.80;;;;;;;8.15;72.94;97769.19;4952859;28;20042;-60
2024/03/12 02:02:52;;;;;;;2.75;0.82;;;;;;;8.02;76.34;97770.38;4937564;28;20086;-60
2024/03/12 02:05:18;;;;;;;2.80;0.90;;;;;;;7.83;78.89;97760.19;4964074;28;20178;-61
2024/03/12 02:07:48;;;;;;;2.83;0.90;;;;;;;7.73;78.87;97749.91;4954829;28;20474;-63
2024/03/12 02:10:18;;;;;;;2.35;0.88;;;;;;;7.78;77.97;97758.06;4970729;28;20054;-61
2024/03/12 02:12:46;;;;;;;3.38;1.00;;;;;;;7.79;79.31;97764.84;4958422;28;20039;-64
2024/03/12 02:15:17;;;;;;;3.50;1.10;;;;;;;7.69;81.69;97762.34;4966628;28;20034;-61
2024/03/12 02:17:46;;;;;;;3.33;1.15;;;;;;;7.63;83.84;97767.28;4960062;28;20049;-62
2024/03/12 02:20:12;;;;;;;2.88;1.00;;;;;;;7.42;85.33;97759.78;4977806;28;20035;-63
2024/03/12 02:22:38;;;;;;;4.95;1.20;;;;;;;7.39;85.77;97758.31;4974949;28;20380;-61
2024/03/12 02:25:10;;;;;;;3.50;1.13;;;;;;;7.56;83.06;97763.66;4978184;28;20034;-64
2024/03/12 02:27:39;;;;;;;2.50;0.85;;;;;;;7.51;83.26;97757.13;4974779;28;20061;-62
2024/03/12 02:30:08;;;;;;;4.53;1.13;;;;;;;7.64;82.85;97766.31;4967768;28;20034;-62
2024/03/12 02:32:34;;;;;;;4.13;0.98;;;;;;;7.45;80.25;97716.34;4953678;28;20728;-63
2024/03/12 02:35:02;;;;;;;2.75;0.93;;;;;;;7.17;81.46;97676.78;4942327;28;20711;-61
2024/03/12 02:37:27;;;;;;;4.60;1.20;;;;;;;7.51;84.98;97769.25;4968654;28;20094;-63
2024/03/12 02:39:55;;;;;;;4.93;1.13;;;;;;;7.55;85.54;97777.56;4962691;28;21513;-59
2024/03/12 02:42:25;;;;;;;3.90;1.17;;;;;;;7.33;86.24;97771.81;4980234;28;20373;-61
2024/03/12 02:44:51;;;;;;;3.42;1.02;;;;;;;7.49;82.11;97777.16;4963817;28;20044;-62
2024/03/12 02:47:20;;;;;;;4.55;0.88;;;;;;;7.62;79.99;97768.25;4959941;28;20058;-62
2024/03/12 02:49:49;;;;;;;1.87;0.60;;;;;;;7.86;76.50;97771.06;4986315;28;20038;-63
2024/03/12 02:52:15;;;;;;;2.15;0.70;;;;;;;7.87;74.46;97762.34;4958924;28;20133;-62
2024/03/12 02:54:42;;;;;;;1.52;0.50;;;;;;;8.26;68.54;97769.75;4971901;28;20038;-64
2024/03/12 02:57:08;;;;;;;1.90;0.70;;;;;;;8.54;67.46;97772.28;4963766;28;20046;-63
2024/03/12 02:59:34;;;;;;;3.38;0.60;;;;;;;8.59;67.78;97771.81;4959812;28;20116;-62
2024/03/12 03:02:00;;;;;;;2.30;0.55;;;;;;;8.42;68.24;97773.47;4977009;28;20048;-62
2024/03/12 03:04:28;;;;;;;2.63;1.60;;;;;;;8.62;66.70;97771.50;4982564;28;20030;-63
2024/03/12 03:07:00;;;;;;;1.83;0.55;;;;;;;8.62;65.66;97751.59;4974796;28;20574;-62
2024/03/12 03:09:27;;;;;;;1.17;0.45;;;;;;;8.75;65.08;97765.91;4975240;28;20118;-62
2024/03/12 03:11:53;;;;;;;1.15;0.50;;;;;;;8.79;64.29;97772.41;4976344;28;20046;-62
2024/03/12 03:14:18;;;;;;;1.63;0.52;;;;;;;8.82;64.41;97777.31;4972316;28;20480;-61
2024/03/12 03:16:44;;;;;;;1.52;0.60;;;;;;;8.71;65.48;97774.97;4958410;28;20038;-61
2024/03/12 03:19:11;;;;;;;2.00;0.60;;;;;;;8.75;65.30;97777.09;4985503;28;20042;-61
2024/03/12 03:21:39;;;;;;;1.33;0.50;;;;;;;8.72;65.06;97789.53;4955281;28;20409;-61
2024/03/12 03:24:05;;;;;;;1.70;0.45;;;;;;;8.77;64.88;97782.94;4983079;28;20117;-63
2024/03/12 03:26:31;;;;;;;1.25;0.50;;;;;;;8.82;64.43;97785.06;4963823;28;20060;-62
2024/03/12 03:28:59;;;;;;;2.22;0.70;;;;;;;8.80;64.79;97803.38;4966523;28;20149;-63
2024/03/12 03:31:25;;;;;;;1.92;0.65;;;;;;;8.72;66.47;97792.94;4976992;28;20041;-61
2024/03/12 03:33:52;;;;;;;2.72;0.60;;;;;;;8.75;65.50;97799.59;4974455;28;20038;-61
2024/03/12 03:36:21;;;;;;;2.63;0.80;;;;;;;8.69;65.68;97789.84;4984948;28;20049;-61
2024/03/12 03:38:49;;;;;;;2.80;0.80;;;;;;;8.71;65.69;97803.47;4960011;28;20046;-61
2024/03/12 03:41:15;;;;;;;1.50;0.50;;;;;;;8.61;65.88;97804.38;4979494;28;20053;-63
2024/03/12 03:43:42;;;;;;;2.97;0.60;;;;;;;8.69;65.58;97806.22;4975709;28;20027;-63
2024/03/12 03:46:08;;;;;;;1.30;0.50;;;;;;;8.70;66.35;97804.44;4975967;28;20100;-63
2024/03/12 03:48:35;;;;;;;2.72;0.60;;;;;;;8.44;65.74;97764.59;4965819;28;20437;-65
2024/03/12 03:51:01;;;;;;;1.35;0.40;;;;;;;8.80;63.52;97805.97;4977038;28;20045;-61
2024/03/12 03:53:27;;;;;;;1.75;0.60;;;;;;;8.74;63.53;97793.59;4978495;28;20037;-61
2024/03/12 03:55:54;;;;;;;1.73;0.60;;;;;;;8.95;62.25;97806.19;4973757;28;20053;-64
2024/03/12 03:58:22;;;;;;;1.40;0.40;;;;;;;8.77;61.13;97754.41;4976655;28;20062;-61
2024/03/12 04:00:49;;;;;;;1.60;0.50;;;;;;;9.38;59.79;97804.47;4957729;28;20045;-62
2024/03/12 04:03:20;;;;;;;2.42;0.63;;;;;;;9.30;60.26;97819.97;4963803;28;20114;-62
2024/03/12 04:05:47;;;;;;;0.93;0.40;;;;;;;9.31;60.46;97818.19;4971134;28;20791;-61
2024/03/12 04:08:16;;;;;;;1.42;0.50;;;;;;;9.31;59.83;97823.38;4992119;28;20027;-63
2024/03/12 04:10:42;;;;;;;0.90;0.40;;;;;;;9.36;59.84;97831.50;4976637;28;20069;-62
2024/03/12 04:13:14;;;;;;;1.55;0.57;;;;;;;9.19;58.79;97778.75;4972271;28;20341;-62
2024/03/12 04:15:41;;;;;;;2.30;0.50;;;;;;;9.43;59.29;97809.16;4964466;28;20077;-63
2024/03/12 04:18:07;;;;;;;1.27;0.50;;;;;;;9.46;58.92;97823.63;4973289;28;20129;-59
2024/03/12 04:20:34;;;;;;;3.22;0.43;;;;;;;9.38;60.79;97825.22;4976039;28;20107;-64
2024/03/12 04:23:01;;;;;;;1.70;0.50;;;;;;;9.07;60.66;97785.19;4959766;28;20480;-61
2024/03/12 04:25:28;;;;;;;1.10;0.35;;;;;;;9.14;61.71;97819.91;4957619;28;20156;-60
2024/03/12 04:27:55;;;;;;;1.55;0.45;;;;;;;9.17;61.40;97825.59;4985075;28;20518;-60
2024/03/12 04:30:22;;;;;;;1.25;0.50;;;;;;;9.16;61.07;97825.75;4976105;28;20070;-62
2024/03/12 04:32:52;;;;;;;2.20;0.60;;;;;;;9.14;61.23;97825.91;4992809;28;20111;-60
2024/03/12 04:35:18;;;;;;;0.90;0.30;;;;;;;9.10;60.96;97816.81;4964551;28;20060;-61
2024/03/12 04:37:46;;;;;;;1.77;0.52;;;;;;;9.22;59.41;97822.56;4959853;28;20634;-62
2024/03/12 04:40:11;;;;;;;2.78;0.38;;;;;;;9.36;58.44;97832.34;4994548;28;20840;-60
2024/03/12 04:42:43;;;;;;;1.70;0.32;;;;;;;9.68;56.75;97845.59;4977611;28;20121;-64
2024/03/12 04:45:14;;;;;;;0.57;0.40;;;;;;;9.79;56.33;97835.72;4958308;28;20039;-62
2024/03/12 04:47:40;;;;;;;1.13;0.35;;;;;;;9.74;56.70;97843.16;4955119;28;20046;-61
2024/03/12 04:50:09;;;;;;;1.00;0.40;;;;;;;9.70;57.10;97870.41;4942505;28;20034;-60
2024/03/12 04:52:36;;;;;;;1.05;0.40;;;;;;;9.60;57.93;97851.53;4938035;28;20038;-63
2024/03/12 04:55:02;;;;;;;0.77;0.30;;;;;;;9.62;57.77;97853.03;4949568;28;20042;-64
2024/03/12 04:57:30;;;;;;;0.60;0.30;;;;;;;9.48;58.32;97843.25;4939076;28;20084;-64
2024/03/12 04:59:57;;;;;;;1.20;0.40;;;;;;;9.64;56.77;97871.06;4944900;28;20050;-64
2024/03/12 05:02:23;;;;;;;1.42;0.38;;;;;;;9.79;56.15;97869.47;4960737;28;20390;-63
2024/03/12 05:04:48;;;;;;;1.45;0.40;;;;;;;9.75;56.29;97895.91;4959149;28;20030;-60
2024/03/12 05:07:13;;;;;;;1.38;0.40;;;;;;;9.42;55.93;97816.16;4960028;28;20076;-63
2024/03/12 05:09:40;;;;;;;1.05;0.40;;;;;;;9.55;55.97;97852.03;4964216;28;20062;-62
2024/03/12 05:12:06;;;;;;;2.15;0.30;;;;;;;9.63;58.08;97892.78;4950172;28;20939;-64
2024/03/12 05:14:31;;;;;;;1.13;0.40;;;;;;;9.59;57.37;97870.69;4954948;28;20027;-62
2024/03/12 05:16:59;;;;;;;2.47;0.40;;;;;;;9.25;57.94;97832.59;4936766;28;20046;-63
2024/03/12 05:19:27;;;;;;;0.93;0.30;;;;;;;9.58;57.53;97893.25;4949405;28;20034;-64
2024/03/12 05:21:54;;;;;;;0.70;0.30;;;;;;;9.68;56.90;97892.31;4956094;28;20038;-62
2024/03/12 05:24:24;;;;;;;3.20;0.30;;;;;;;9.60;56.52;97896.50;4966882;28;20084;-61
2024/03/12 05:26:54;;;;;;;1.45;0.40;;;;;;;9.73;56.88;97903.84;4953615;28;20052;-63
2024/03/12 05:29:26;;;;;;;2.35;0.73;;;;;;;9.68;56.79;97890.53;4971446;28;20073;-63
2024/03/12 05:31:51;;;;;;;1.67;0.50;;;;;;;9.73;55.70;97901.25;4959142;28;20490;-63
2024/03/12 05:34:28;;;;;;;0.88;0.30;;;;;;;9.83;55.55;97901.13;4960525;28;20308;-63
2024/03/12 05:37:03;;;;;;;1.45;0.43;;;;;;;9.55;54.48;97854.63;4963146;28;20149;-62
2024/03/12 05:39:50;;;;;;;1.10;0.30;;;;;;;9.95;53.75;97904.25;4954363;28;20121;-62
2024/03/12 05:48:12;;;;;;;0.55;0.25;;;;;;;10.04;53.41;97908.50;4960404;28;20400;-64
2024/03/12 05:50:41;;;;;;;1.27;0.40;;;;;;;10.07;53.04;97917.75;4997890;28;20121;-62
2024/03/12 05:53:10;;;;;;;0.52;0.20;;;;;;;10.13;52.60;97904.13;4958633;28;20041;-62
2024/03/12 05:55:40;;;;;;;0.77;0.30;;;;;;;10.05;51.91;97880.75;4976888;28;20050;-62
2024/03/12 05:58:10;;;;;;;0.82;0.32;;;;;;;10.22;51.45;97903.16;4992929;28;20060;-62
2024/03/12 06:00:38;;;;;;;;;;;;;;;10.04;51.99;97887.72;4978864;28;20049;-62
2024/03/12 06:03:09;;;;;;;0.38;0.17;;;;;;;10.25;51.90;97917.63;4964469;28;19968;-61
2024/03/12 06:05:35;;;;;;;1.00;0.20;;;;;;;10.06;50.92;97871.97;4974616;28;20042;-63
2024/03/12 06:08:00;;;;;;;0.90;0.28;;;;;;;10.27;51.92;97920.88;4990492;28;20061;-63
2024/03/12 06:10:33;;;;;;;1.05;0.30;;;;;;;10.24;51.71;97914.25;4959000;28;20124;-61
2024/03/12 06:12:59;;;;;;;0.93;0.30;;;;;;;10.27;51.30;97906.09;4972858;28;20088;-64
2024/03/12 06:15:24;;;;;;;2.38;0.43;;;;;;;10.36;50.94;97925.97;4977761;28;20921;-60
2024/03/12 06:17:52;;;;;;;0.75;0.30;;;;;;;10.12;50.58;97866.16;4973861;28;20088;-61
2024/03/12 06:20:20;;;;;;;0.85;0.30;;;;;;;10.37;50.26;97911.19;4979653;28;20823;-61
2024/03/12 06:22:48;;;;;;;0.77;0.32;;;;;;;10.27;50.40;97908.69;4955211;28;20034;-62
2024/03/12 06:25:13;;;;;;;0.77;0.30;;;;;;;10.33;51.55;97934.09;4953741;28;20069;-63
2024/03/12 06:27:41;;;;;;;1.13;0.40;;;;;;;10.41;50.91;97940.28;4971977;28;20442;-62
2024/03/12 06:30:08;;;;;;;0.90;0.30;;;;;;;10.29;51.02;97924.94;4972513;28;20039;-62
2024/03/12 06:32:33;;;;;;;0.95;0.40;;;;;;;9.97;50.75;97869.34;4952857;28;20042;-59
2024/03/12 06:34:59;;;;;;;0.35;0.22;;;;;;;10.48;49.92;97929.06;4955918;28;20523;-61
2024/03/12 06:37:30;;;;;;;1.30;0.40;;;;;;;10.46;49.36;97938.00;4962174;28;20054;-62
2024/03/12 06:39:55;;;;;;;1.58;0.47;;;;;;;10.08;50.30;97891.63;4975015;28;20624;-61
2024/03/12 06:42:26;;;;;;;0.30;0.20;;;;;;;10.47;49.82;97930.03;4958730;28;20058;-60
2024/03/12 06:44:57;;;;;;;0.60;0.30;;;;;;;10.37;50.51;97927.59;4978487;28;20212;-60
2024/03/12 06:47:25;;;;;;;1.52;0.30;;;;;;;10.35;50.24;97932.16;4968486;28;20141;-61
2024/03/12 06:49:54;;;;;;;0.57;0.20;;;;;;;10.09;49.93;97869.84;4955717;28;20124;-61
2024/03/12 06:52:22;;;;;;;1.27;0.40;;;;;;;10.12;51.06;97894.72;4951010;28;20810;-65
2024/03/12 06:54:48;;;;;;;2.03;0.68;;;;;;;10.36;50.78;97945.94;4975765;28;20606;-61
2024/03/12 06:57:14;;;;;;;1.50;0.40;;;;;;;10.20;51.49;97934.53;4971961;28;20146;-65
2024/03/12 06:59:47;;;;;;;0.68;0.30;;;;;;;10.18;51.85;97940.84;4963960;28;21010;-64
2024/03/12 07:02:13;;;;;;;0.75;0.30;;;;;;;10.13;51.83;97943.91;4965995;28;20156;-63
2024/03/12 07:04:48;;;;;;;1.23;0.40;;;;;;;10.19;50.65;97956.28;4969940;28;20056;-62
2024/03/12 07:07:19;;;;;;;0.88;0.30;;;;;;;10.24;50.35;97950.63;4964671;28;20042;-62
2024/03/12 07:09:49;;;;;;;1.30;0.57;;;;;;;10.28;50.77;97953.72;4977444;28;20034;-61
2024/03/12 07:12:20;;;;;;;0.85;0.40;;;;;;;10.29;50.43;97956.13;4971903;28;21129;-60
2024/03/12 07:14:54;;;;;;;0.98;0.40;;;;;;;10.31;49.91;97950.81;4956493;28;20449;-64
2024/03/12 07:17:27;;;;;;;1.08;0.50;;;;;;;10.25;50.36;97960.00;4967733;28;20065;-61
2024/03/12 07:19:52;;;;;;;0.77;0.30;;;;;;;9.79;52.79;97905.81;4960358;28;20045;-62
2024/03/12 07:22:18;;;;;;;2.25;0.40;;;;;;;9.91;53.60;97960.06;4958052;28;20699;-63
2024/03/12 07:24:47;;;;;;;1.90;0.50;;;;;;;9.72;54.66;97959.34;4971456;28;20504;-62
2024/03/12 07:27:15;;;;;;;1.70;0.40;;;;;;;9.61;56.09;97972.59;4961410;28;20129;-62
2024/03/12 07:29:44;;;;;;;1.23;0.30;;;;;;;9.36;55.41;97928.34;4973922;28;20139;-62
2024/03/12 07:32:09;;;;;;;3.63;0.73;;;;;;;9.75;54.79;97951.25;4972627;28;20046;-62
2024/03/12 07:34:37;;;;;;;1.98;0.75;;;;;;;9.87;53.58;97954.34;4976115;28;20072;-64
2024/03/12 07:37:02;;;;;;;0.55;0.30;;;;;;;9.86;54.49;97967.53;4958856;28;20034;-61
2024/03/12 07:39:36;;;;;;;1.08;0.40;;;;;;;9.73;56.08;97962.72;4977485;28;20048;-63
2024/03/12 07:42:09;;;;;;;1.83;0.50;;;;;;;9.58;56.30;97971.13;4964797;28;20069;-63
2024/03/12 07:44:37;;;;;;;7.38;0.80;;;;;;;9.73;55.03;97963.56;4957689;28;20838;-64
2024/03/12 07:47:09;;;;;;;1.08;0.40;;;;;;;9.97;52.98;97965.44;4969535;28;20213;-61
2024/03/12 07:49:41;;;;;;;1.58;0.40;;;;;;;10.03;53.11;97951.03;4954579;28;20041;-63
2024/03/12 07:52:09;;;;;;;1.30;0.30;;;;;;;10.14;52.06;97965.50;4949904;28;20125;-62
2024/03/12 07:54:34;;;;;;;1.02;0.30;;;;;;;10.20;52.15;97960.50;4940113;28;20544;-64
2024/03/12 07:57:00;;;;;;;1.80;0.40;;;;;;;10.13;52.11;97959.50;4938219;28;20038;-62
2024/03/12 07:59:28;;;;;;;1.23;0.30;;;;;;;10.24;51.22;97961.00;4956486;28;20514;-61
2024/03/12 08:01:59;;;;;;;1.95;0.60;;;;;;;10.16;53.25;97971.34;4972508;28;20069;-63
2024/03/12 08:04:26;;;;;;;2.95;0.60;;;;;;;9.91;53.12;97928.91;4952843;28;20109;-62
2024/03/12 08:06:57;;;;;;;2.60;0.60;;;;;;;9.90;53.09;97925.50;4934213;28;20073;-62
2024/03/12 08:09:23;;;;;;;1.13;0.45;;;;;;;10.31;51.48;97977.63;4957040;28;20073;-61
2024/03/12 08:11:52;;;;;;;1.27;0.50;;;;;;;10.12;50.89;97931.88;4959255;28;20206;-61
2024/03/12 08:14:22;;;;;;;1.95;0.38;;;;;;;10.48;50.69;97980.25;4966118;28;20381;-60
2024/03/12 08:16:49;;;;;;;1.35;0.50;;;;;;;10.66;49.08;97980.09;4955250;28;20044;-62
2024/03/12 08:19:15;;;;;;;1.88;0.50;;;;;;;10.70;49.46;97960.63;4936621;28;20069;-63
2024/03/12 08:21:41;;;;;;;1.30;0.38;;;;;;;10.78;48.80;97997.03;4955162;28;20773;-63
2024/03/12 08:24:07;;;;;;;0.98;0.25;;;;;;;10.78;48.55;97984.81;4943850;28;20563;-61
2024/03/12 08:26:33;;;;;;;1.40;0.50;;;;;;;10.90;47.96;97976.72;4968274;28;20034;-61
2024/03/12 08:28:58;;;;;;;1.83;0.50;;;;;;;11.00;47.27;97986.97;4965428;28;20068;-62
2024/03/12 08:31:24;;;;;;;1.48;0.50;;;;;;;11.06;47.07;97991.50;4951687;28;20235;-65
2024/03/12 08:33:54;;;;;;;1.50;0.47;;;;;;;11.10;47.38;97983.22;4940058;28;20509;-61
2024/03/12 08:36:19;;;;;;;2.70;0.50;;;;;;;11.27;46.17;97991.03;4951933;28;20129;-60
2024/03/12 08:38:49;;;;;;;1.45;0.50;;;;;;;11.26;46.97;97987.63;4967369;28;20047;-61
2024/03/12 08:41:15;;;;;;;2.92;0.65;;;;;;;11.20;47.02;97982.25;4937276;28;20564;-64
2024/03/12 08:43:41;;;;;;;1.27;0.40;;;;;;;11.25;45.67;98001.59;4959348;28;20038;-60
2024/03/12 08:46:07;;;;;;;1.25;0.32;;;;;;;11.42;44.58;97988.56;4954271;28;20417;-64
2024/03/12 08:48:35;;;;;;;0.98;0.38;;;;;;;11.51;44.19;97977.16;4940693;28;20050;-61
2024/03/12 08:51:02;;;;;;;0.90;0.40;;;;;;;11.65;43.43;97993.91;4955020;28;20042;-61
2024/03/12 08:53:33;;;;;;;1.20;0.30;;;;;;;11.64;44.04;97998.28;4953608;28;20188;-65
2024/03/12 08:55:59;;;;;;;1.05;0.38;;;;;;;11.72;43.83;98002.66;4965248;28;20442;-63
2024/03/12 08:58:24;;;;;;;2.28;0.50;;;;;;;11.72;42.97;97995.66;4938455;28;20163;-62
2024/03/12 09:00:53;;;;;;;2.40;0.75;;;;;;;11.42;42.10;97946.91;4941097;28;20089;-62
2024/03/12 09:03:19;;;;;;;2.72;0.63;;;;;;;12.00;40.47;97992.66;4972325;28;20061;-59
2024/03/12 09:05:45;;;;;;;1.75;0.50;;;;;;;12.01;41.60;97994.31;4954016;28;20092;-60
2024/03/12 09:08:10;;;;;;;4.30;0.70;;;;;;;12.02;43.31;97997.72;4938562;28;20034;-61
2024/03/12 09:10:39;;;;;;;1.23;0.40;;;;;;;12.03;42.77;98004.53;4956112;28;20042;-63
2024/03/12 09:13:05;;;;;;;2.78;0.68;;;;;;;12.11;41.01;98000.09;4958991;28;20030;-62
2024/03/12 09:15:33;;;;;;;3.15;0.82;;;;;;;12.11;42.05;97997.50;4965910;28;20069;-64
2024/03/12 09:18:04;;;;;;;5.70;1.60;;;;;;;11.99;41.93;98000.66;4957225;28;20757;-61
2024/03/12 09:20:30;;;;;;;6.90;1.90;;;;;;;11.89;40.65;97954.72;4946118;28;20047;-60
2024/03/12 09:22:59;;;;;;;3.58;1.00;;;;;;;12.15;41.02;97997.16;4943964;28;20036;-62
2024/03/12 09:25:26;;;;;;;4.10;0.90;;;;;;;12.14;43.04;98008.56;4968052;28;20046;-62
2024/03/12 09:27:51;;;;;;;6.07;1.02;;;;;;;12.29;42.22;98017.31;4954969;28;20051;-64
2024/03/12 09:30:18;;;;;;;17.73;5.90;;;;;;;12.41;40.67;98022.94;4957341;28;20690;-62
2024/03/12 09:32:46;;;;;;;13.88;4.93;;;;;;;12.45;42.54;98013.81;4936759;28;20030;-63
2024/03/12 09:35:11;;;;;;;15.63;5.63;;;;;;;12.49;42.68;98009.88;4958144;28;20046;-63
2024/03/12 09:37:40;;;;;;;9.15;3.67;;;;;;;12.50;42.70;98009.72;4935141;28;20541;-61
2024/03/12 09:40:06;;;;;;;6.95;2.83;;;;;;;12.55;45.36;98030.03;4957752;28;20054;-63
2024/03/12 09:42:40;;;;;;;8.40;3.88;;;;;;;12.65;44.91;98022.81;4966950;28;20045;-63
2024/03/12 09:45:09;;;;;;;3.97;1.02;;;;;;;12.73;42.20;98019.34;4998497;28;20034;-61
2024/03/12 09:47:35;;;;;;;1.60;0.60;;;;;;;12.92;41.71;98022.50;4957608;28;20054;-62
2024/03/12 09:50:01;;;;;;;2.50;0.90;;;;;;;13.19;39.79;98013.31;4980260;28;20034;-61
2024/03/12 09:52:28;;;;;;;4.85;1.83;;;;;;;13.44;39.67;98013.94;4975996;28;20540;-63
2024/03/12 09:54:54;;;;;;;11.43;4.55;;;;;;;13.45;41.99;98026.00;4983006;28;20054;-61
2024/03/12 09:57:22;;;;;;;5.60;1.65;;;;;;;13.48;41.89;98024.84;4974812;28;20050;-61
2024/03/12 09:59:52;;;;;;;3.73;1.10;;;;;;;13.39;42.12;97993.56;4976393;28;20030;-62
2024/03/12 10:02:20;;;;;;;2.85;0.95;;;;;;;13.76;39.58;98022.44;4961044;28;20034;-63
2024/03/12 10:04:48;;;;;;;0.63;0.30;;;;;;;14.08;36.92;98023.91;4973903;28;20038;-61
2024/03/12 10:07:16;;;;;;;0.68;0.30;;;;;;;13.91;36.00;97991.09;4961702;28;20204;-62
2024/03/12 10:09:44;;;;;;;2.00;0.50;;;;;;;13.97;38.53;97995.59;4968713;28;20092;-62
2024/03/12 10:12:09;;;;;;;0.57;0.30;;;;;;;13.76;39.67;97994.53;4975173;28;20049;-62
2024/03/12 10:14:37;;;;;;;1.45;0.30;;;;;;;14.09;38.97;98035.97;4974964;28;20037;-63
2024/03/12 10:17:13;;;;;;;0.50;0.20;;;;;;;14.36;37.51;98031.06;4955862;28;20058;-63
2024/03/12 10:19:50;;;;;;;1.27;0.30;;;;;;;14.51;36.51;98031.88;4978588;28;20038;-63
2024/03/12 10:22:20;;;;;;;1.02;0.38;;;;;;;14.43;39.62;98031.97;4982211;28;20715;-64
2024/03/12 10:24:51;;;;;;;1.75;0.65;;;;;;;14.33;39.29;98028.81;4989016;28;20135;-63
2024/03/12 10:27:18;;;;;;;1.67;0.30;;;;;;;14.39;37.66;98031.50;4989055;28;20721;-61
2024/03/12 10:29:49;;;;;;;1.10;0.40;;;;;;;14.61;35.88;98026.38;4968163;28;20114;-62
2024/03/12 10:32:28;;;;;;;0.25;0.20;;;;;;;14.74;33.95;98044.00;4994298;28;20081;-62
2024/03/12 10:34:59;;;;;;;0.65;0.20;;;;;;;14.58;35.44;97982.25;4956975;28;20125;-61
2024/03/12 10:37:28;;;;;;;0.28;0.20;;;;;;;14.77;36.28;98018.28;4994441;28;20042;-62
2024/03/12 10:40:13;;;;;;;0.70;0.30;;;;;;;14.72;36.04;98033.72;4972440;28;20064;-62
2024/03/12 10:42:40;;;;;;;0.73;0.30;;;;;;;14.77;38.18;98033.19;4963494;28;20084;-61
2024/03/12 10:45:07;;;;;;;0.98;0.20;;;;;;;14.66;39.83;98034.47;4974550;28;20030;-63
2024/03/12 10:47:33;;;;;;;0.60;0.30;;;;;;;14.51;36.94;97997.03;4982359;28;20052;-64
2024/03/12 10:50:00;;;;;;;1.38;0.40;;;;;;;14.84;36.78;98030.63;4988460;28;20029;-62
2024/03/12 10:52:28;;;;;;;0.77;0.30;;;;;;;14.85;37.88;98033.06;4970920;28;20045;-60
2024/03/12 10:54:53;;;;;;;0.98;0.22;;;;;;;14.76;35.32;98000.94;4993582;28;20038;-61
2024/03/12 10:57:21;;;;;;;0.32;0.20;;;;;;;15.19;31.52;98026.31;4960763;28;20048;-62
2024/03/12 10:59:48;;;;;;;0.55;0.20;;;;;;;14.94;33.72;97989.25;4980336;28;20626;-61
2024/03/12 11:02:13;;;;;;;0.30;0.20;;;;;;;15.12;34.50;98028.06;4982044;28;20049;-60
2024/03/12 11:04:39;;;;;;;0.90;0.20;;;;;;;14.90;34.47;98001.09;4985057;28;21069;-61
2024/03/12 11:07:07;;;;;;;0.38;0.20;;;;;;;15.13;35.86;98037.53;4971810;28;20096;-62
2024/03/12 11:09:36;;;;;;;0.45;0.20;;;;;;;14.97;37.83;98036.81;4973857;28;20049;-61
2024/03/12 11:12:04;;;;;;;1.27;0.40;;;;;;;15.01;39.32;98023.34;4966147;28;20034;-62
2024/03/12 11:14:32;;;;;;;0.93;0.30;;;;;;;15.02;34.10;97996.94;4961505;28;20048;-62
2024/03/12 11:17:00;;;;;;;1.15;0.30;;;;;;;15.34;35.03;98023.63;4981608;28;20065;-62
2024/03/12 11:19:26;;;;;;;2.08;0.70;;;;;;;15.28;36.54;98019.97;4966123;28;20046;-62
2024/03/12 11:21:52;;;;;;;1.30;0.50;;;;;;;15.27;36.32;98017.53;4973042;28;20049;-62
2024/03/12 11:24:32;;;;;;;1.00;0.40;;;;;;;15.29;35.92;98026.78;4955958;28;20536;-62
2024/03/12 11:27:00;;;;;;;;;;;;;;;15.24;36.38;98023.97;4973107;28;20060;-62
2024/03/12 11:30:21;;;;;;;1.23;0.40;;;;;;;15.32;34.96;98017.78;4976565;28;19917;-63
2024/03/12 11:32:52;;;;;;;1.15;0.40;;;;;;;15.41;36.66;98010.59;4987647;28;20048;-60
2024/03/12 11:35:18;;;;;;;0.47;0.20;;;;;;;15.30;37.51;98017.97;4955498;28;20096;-63
2024/03/12 11:37:49;;;;;;;0.82;0.40;;;;;;;15.24;36.50;98015.28;4987230;28;20030;-63
2024/03/12 11:40:51;;;;;;;1.95;0.50;;;;;;;15.25;34.36;98020.31;4985723;28;20132;-62
2024/03/12 11:43:37;;;;;;;1.30;0.40;;;;;;;15.31;37.75;98019.56;4965511;28;20584;-63
2024/03/12 11:46:04;;;;;;;0.75;0.30;;;;;;;15.22;34.60;97981.41;4974628;28;20056;-60
2024/03/12 11:48:40;;;;;;;1.63;0.40;;;;;;;15.52;36.56;97997.75;4958013;28;21144;-61
2024/03/12 11:51:13;;;;;;;0.30;0.20;;;;;;;15.71;31.94;97990.22;4956339;28;20038;-60